createdAt,value
2017-08-04T00:00:18.034Z,58.50
2017-08-04T00:02:45.481Z,58.50
2017-08-04T00:05:13.062Z,58.60
2017-08-04T00:07:40.625Z,58.20
2017-08-04T00:10:08.278Z,58.40
2017-08-04T00:12:35.984Z,58.40
2017-08-04T00:15:03.631Z,58.20
2017-08-04T00:17:31.794Z,58.30
2017-08-04T00:20:00.220Z,58.30
2017-08-04T00:22:27.973Z,58.40
2017-08-04T00:24:55.627Z,58.60
2017-08-04T00:27:23.203Z,58.70
2017-08-04T00:29:50.780Z,58.60
2017-08-04T00:32:18.420Z,58.30
2017-08-04T00:34:45.950Z,58.60
2017-08-04T00:37:13.603Z,58.10
2017-08-04T00:39:41.139Z,58.10
2017-08-04T00:42:08.734Z,58.10
2017-08-04T00:44:36.264Z,58.50
2017-08-04T00:47:03.748Z,58.40
2017-08-04T00:49:31.328Z,58.60
2017-08-04T00:51:58.824Z,59.00
2017-08-04T00:54:26.739Z,58.60
2017-08-04T00:57:00.114Z,58.50
2017-08-04T00:59:28.567Z,58.90
2017-08-04T01:04:32.838Z,58.80
2017-08-04T01:07:04.338Z,59.00
2017-08-04T01:09:31.809Z,59.70
2017-08-04T01:11:59.374Z,59.20
2017-08-04T01:14:26.901Z,59.50
2017-08-04T01:16:54.444Z,59.60
2017-08-04T01:19:23.383Z,59.50
2017-08-04T01:21:50.864Z,59.80
2017-08-04T01:24:18.320Z,59.70
2017-08-04T01:26:46.026Z,60.00
2017-08-04T01:29:13.585Z,59.80
2017-08-04T01:31:41.171Z,59.90
2017-08-04T01:34:08.880Z,59.70
2017-08-04T01:36:36.742Z,59.90
2017-08-04T01:39:04.195Z,60.20
2017-08-04T01:41:31.928Z,60.80
2017-08-04T01:43:59.392Z,60.60
2017-08-04T01:46:26.941Z,60.80
2017-08-04T01:48:54.436Z,61.00
2017-08-04T01:51:23.043Z,61.50
2017-08-04T01:53:50.756Z,61.20
2017-08-04T01:56:18.262Z,61.40
2017-08-04T01:58:45.811Z,61.50
2017-08-04T02:01:14.071Z,61.70
2017-08-04T02:03:41.893Z,61.50
2017-08-04T02:06:09.499Z,61.50
2017-08-04T02:08:37.097Z,61.60
2017-08-04T02:11:04.752Z,61.90
2017-08-04T02:13:33.000Z,61.80
2017-08-04T02:16:00.660Z,61.80
2017-08-04T02:18:28.271Z,62.00
2017-08-04T02:20:55.862Z,62.00
2017-08-04T02:23:23.755Z,62.10
2017-08-04T02:25:51.612Z,61.80
2017-08-04T02:28:19.047Z,62.20
2017-08-04T02:30:46.525Z,61.90
2017-08-04T02:33:14.067Z,61.70
2017-08-04T02:35:41.626Z,61.90
2017-08-04T02:38:09.140Z,62.00
2017-08-04T02:40:36.655Z,62.10
2017-08-04T02:43:04.117Z,62.10
2017-08-04T02:45:31.602Z,62.20
2017-08-04T02:47:59.079Z,62.60
2017-08-04T02:50:26.517Z,62.80
2017-08-04T02:52:54.812Z,62.40
2017-08-04T02:55:22.375Z,62.40
2017-08-04T02:57:51.109Z,62.30
2017-08-04T03:00:18.625Z,62.30
2017-08-04T03:02:46.120Z,61.80
2017-08-04T03:05:13.732Z,62.10
2017-08-04T03:07:41.490Z,62.00
2017-08-04T03:10:08.986Z,62.00
2017-08-04T03:12:36.447Z,61.90
2017-08-04T03:15:03.923Z,62.10
2017-08-04T03:17:31.522Z,61.50
2017-08-04T03:19:59.043Z,61.60
2017-08-04T03:22:26.575Z,61.50
2017-08-04T03:24:54.974Z,62.00
2017-08-04T03:27:22.520Z,61.80
2017-08-04T03:29:50.038Z,62.00
2017-08-04T03:32:17.530Z,61.80
2017-08-04T03:34:45.025Z,61.20
2017-08-04T03:37:12.561Z,61.70
2017-08-04T03:39:40.127Z,61.80
2017-08-04T03:42:07.593Z,61.30
2017-08-04T03:44:35.051Z,61.50
2017-08-04T03:47:02.614Z,61.70
2017-08-04T03:49:30.104Z,61.40
2017-08-04T03:51:57.558Z,61.00
2017-08-04T03:54:25.278Z,61.10
2017-08-04T03:56:52.839Z,60.70
2017-08-04T03:59:20.326Z,60.80
2017-08-04T04:01:47.837Z,60.70
2017-08-04T04:04:15.311Z,60.50
2017-08-04T04:06:42.986Z,60.70
2017-08-04T04:09:10.464Z,60.40
2017-08-04T04:11:38.002Z,60.00
2017-08-04T04:14:05.650Z,59.80
2017-08-04T04:16:33.318Z,59.80
2017-08-04T04:19:00.783Z,59.70
2017-08-04T04:21:28.477Z,59.80
2017-08-04T04:23:55.995Z,59.70
2017-08-04T04:26:23.583Z,59.00
2017-08-04T04:28:51.025Z,58.90
2017-08-04T04:31:19.209Z,58.90
2017-08-04T04:33:46.675Z,58.90
2017-08-04T04:36:14.196Z,59.00
2017-08-04T04:38:41.751Z,59.20
2017-08-04T04:41:09.356Z,59.00
2017-08-04T04:43:40.469Z,58.90
2017-08-04T04:46:08.748Z,58.90
2017-08-04T04:48:36.312Z,59.00
2017-08-04T04:51:04.105Z,59.00
2017-08-04T04:53:31.642Z,58.90
2017-08-04T04:55:59.255Z,58.90
2017-08-04T04:58:28.801Z,59.00
2017-08-04T05:00:57.937Z,59.20
2017-08-04T05:03:25.555Z,59.20
2017-08-04T05:05:53.021Z,59.30
2017-08-04T05:08:23.654Z,59.50
2017-08-04T05:10:55.448Z,59.70
2017-08-04T05:13:23.048Z,59.50
2017-08-04T05:15:51.555Z,59.40
2017-08-04T05:18:20.230Z,59.60
2017-08-04T05:20:47.724Z,59.60
2017-08-04T05:23:15.520Z,59.80
2017-08-04T05:25:43.683Z,59.80
2017-08-04T05:28:11.289Z,60.10
2017-08-04T05:30:38.967Z,60.10
2017-08-04T05:33:06.411Z,60.00
2017-08-04T05:35:33.960Z,60.00
2017-08-04T05:38:01.596Z,60.20
2017-08-04T05:40:29.353Z,60.50
2017-08-04T05:42:58.221Z,60.70
2017-08-04T05:45:25.836Z,60.80
2017-08-04T05:47:53.423Z,61.10
2017-08-04T05:50:22.545Z,60.80
2017-08-04T05:52:50.128Z,61.30
2017-08-04T05:55:17.719Z,61.40
2017-08-04T06:00:22.077Z,60.50
2017-08-04T06:02:49.653Z,60.10
2017-08-04T06:05:17.312Z,59.90
2017-08-04T06:07:44.858Z,59.50
2017-08-04T06:10:15.003Z,59.50
2017-08-04T06:12:42.474Z,59.50
2017-08-04T06:15:10.015Z,59.90
2017-08-04T06:17:37.569Z,60.00
2017-08-04T06:20:05.085Z,59.50
2017-08-04T06:22:32.693Z,59.60
2017-08-04T06:25:02.399Z,59.40
2017-08-04T06:27:30.287Z,59.80
2017-08-04T06:29:57.914Z,59.60
2017-08-04T06:32:30.189Z,59.10
2017-08-04T06:34:57.796Z,58.50
2017-08-04T06:37:25.485Z,58.50
2017-08-04T06:39:56.018Z,58.20
2017-08-04T06:45:06.476Z,57.90
2017-08-04T06:47:35.608Z,57.80
2017-08-04T06:50:16.698Z,57.50
2017-08-04T06:53:06.656Z,57.80
2017-08-04T06:55:46.061Z,57.50
2017-08-04T06:58:14.814Z,56.50
2017-08-04T07:00:42.423Z,56.50
2017-08-04T07:03:09.881Z,56.10
2017-08-04T07:05:37.336Z,55.00
2017-08-04T07:08:05.348Z,54.90
2017-08-04T07:10:33.319Z,53.60
2017-08-04T07:13:02.601Z,52.20
2017-08-04T07:15:33.211Z,50.40
2017-08-04T07:18:01.259Z,50.10
2017-08-04T07:20:28.720Z,50.60
2017-08-04T07:22:59.469Z,50.90
2017-08-04T07:25:28.161Z,51.20
2017-08-04T07:27:59.052Z,50.90
2017-08-04T07:30:28.331Z,52.40
2017-08-04T07:32:58.823Z,51.80
2017-08-04T07:35:26.726Z,52.40
2017-08-04T07:37:54.384Z,53.20
2017-08-04T07:40:25.084Z,53.90
2017-08-04T07:42:52.718Z,53.90
2017-08-04T07:45:35.588Z,54.40
2017-08-04T07:48:04.145Z,54.60
2017-08-04T07:50:42.688Z,53.90
2017-08-04T07:53:14.803Z,53.40
2017-08-04T07:58:35.086Z,53.30
2017-08-04T08:01:05.233Z,51.80
2017-08-04T08:03:33.869Z,52.80
2017-08-04T08:06:06.051Z,52.50
2017-08-04T08:08:35.947Z,51.50
2017-08-04T08:11:07.651Z,51.00
2017-08-04T08:13:39.667Z,50.90
2017-08-04T08:18:55.156Z,50.80
2017-08-04T08:21:24.731Z,50.90
2017-08-04T08:23:53.458Z,50.10
2017-08-04T08:26:21.070Z,49.90
2017-08-04T08:28:49.981Z,49.20
2017-08-04T08:31:19.103Z,48.50
2017-08-04T08:33:47.744Z,48.30
2017-08-04T08:36:16.967Z,46.20
2017-08-04T08:38:48.254Z,46.10
2017-08-04T08:41:15.819Z,46.60
2017-08-04T08:43:43.416Z,47.40
2017-08-04T08:46:10.877Z,47.70
2017-08-04T08:48:38.566Z,46.70
2017-08-04T08:51:06.275Z,45.70
2017-08-04T08:53:36.260Z,46.40
2017-08-04T08:56:04.529Z,47.30
2017-08-04T08:58:33.932Z,47.60
2017-08-04T09:01:10.964Z,48.70
2017-08-04T09:03:38.613Z,48.30
2017-08-04T09:06:06.749Z,48.80
2017-08-04T09:08:37.421Z,48.60
2017-08-04T09:11:05.573Z,49.00
2017-08-04T09:13:33.597Z,49.10
2017-08-04T09:16:01.439Z,49.00
2017-08-04T09:18:30.478Z,49.00
2017-08-04T09:20:57.952Z,49.30
2017-08-04T09:23:25.645Z,48.90
2017-08-04T09:25:53.223Z,49.10
2017-08-04T09:28:20.854Z,48.90
2017-08-04T09:30:49.117Z,48.00
2017-08-04T09:33:20.250Z,45.20
2017-08-04T09:35:48.698Z,45.40
2017-08-04T09:38:17.919Z,44.70
2017-08-04T09:40:49.380Z,42.00
2017-08-04T09:43:17.664Z,41.30
2017-08-04T09:45:45.208Z,40.00
2017-08-04T09:48:13.574Z,40.90
2017-08-04T09:50:41.271Z,41.70
2017-08-04T09:53:09.805Z,42.70
2017-08-04T09:55:41.700Z,44.80
2017-08-04T09:58:09.512Z,44.80
2017-08-04T10:00:37.069Z,46.20
2017-08-04T10:03:06.573Z,46.90
2017-08-04T10:05:38.728Z,47.90
2017-08-04T10:08:06.449Z,47.70
2017-08-04T10:10:36.689Z,48.70
2017-08-04T10:13:05.211Z,49.00
2017-08-04T10:15:33.439Z,49.00
2017-08-04T10:18:02.309Z,48.40
2017-08-04T10:20:29.879Z,48.10
2017-08-04T10:22:59.262Z,47.50
2017-08-04T10:25:35.833Z,48.30
2017-08-04T10:28:03.315Z,48.90
2017-08-04T10:33:11.011Z,49.30
2017-08-04T10:35:38.639Z,49.40
2017-08-04T10:38:07.736Z,49.70
2017-08-04T10:40:35.356Z,49.10
2017-08-04T10:43:03.936Z,48.90
2017-08-04T10:45:33.289Z,48.40
2017-08-04T10:48:01.179Z,48.40
2017-08-04T10:50:28.965Z,48.80
2017-08-04T10:52:56.444Z,49.20
2017-08-04T10:55:24.264Z,49.30
2017-08-04T10:57:59.742Z,48.90
2017-08-04T11:03:13.617Z,49.50
2017-08-04T11:05:41.204Z,49.40
2017-08-04T11:08:10.163Z,48.70
2017-08-04T11:10:40.466Z,48.80
2017-08-04T11:13:12.849Z,49.20
2017-08-04T11:15:40.350Z,49.40
2017-08-04T11:18:07.879Z,48.70
2017-08-04T11:20:35.536Z,48.60
2017-08-04T11:23:05.269Z,48.50
2017-08-04T11:25:36.552Z,48.80
2017-08-04T11:28:04.144Z,49.40
2017-08-04T11:30:31.851Z,49.90
2017-08-04T11:33:00.865Z,50.00
2017-08-04T11:35:30.781Z,49.70
2017-08-04T11:37:58.921Z,49.90
2017-08-04T11:40:27.264Z,49.20
2017-08-04T11:42:54.938Z,48.40
2017-08-04T11:45:24.647Z,48.80
2017-08-04T11:47:52.127Z,48.80
2017-08-04T11:50:20.100Z,48.50
2017-08-04T11:55:24.368Z,49.20
2017-08-04T11:57:52.070Z,50.10
2017-08-04T12:00:19.569Z,50.60
2017-08-04T12:02:48.100Z,51.00
2017-08-04T12:05:15.676Z,50.70
2017-08-04T12:07:43.162Z,50.20
2017-08-04T12:10:10.674Z,49.90
2017-08-04T12:12:39.544Z,50.00
2017-08-04T12:15:09.333Z,50.00
2017-08-04T12:17:37.853Z,50.20
2017-08-04T12:20:05.425Z,50.30
2017-08-04T12:22:33.117Z,50.70
2017-08-04T12:25:01.362Z,51.00
2017-08-04T12:27:28.949Z,50.50
2017-08-04T12:29:56.573Z,50.80
2017-08-04T12:32:24.140Z,51.60
2017-08-04T12:34:53.246Z,51.60
2017-08-04T12:37:21.139Z,51.30
2017-08-04T12:39:49.428Z,51.20
2017-08-04T12:42:17.075Z,51.20
2017-08-04T12:44:44.530Z,51.70
2017-08-04T12:47:12.113Z,52.00
2017-08-04T12:49:39.597Z,52.30
2017-08-04T12:52:07.342Z,52.70
2017-08-04T12:54:35.785Z,52.60
2017-08-04T12:57:03.335Z,52.70
2017-08-04T12:59:35.931Z,52.70
2017-08-04T13:02:03.628Z,51.50
2017-08-04T13:04:32.826Z,51.00
2017-08-04T13:07:00.291Z,51.00
2017-08-04T13:09:30.117Z,51.30
2017-08-04T13:11:57.836Z,50.70
2017-08-04T13:14:25.420Z,50.50
2017-08-04T13:16:53.072Z,50.70
2017-08-04T13:19:21.435Z,51.70
2017-08-04T13:21:50.094Z,51.70
2017-08-04T13:24:17.681Z,52.00
2017-08-04T13:26:45.220Z,51.70
2017-08-04T13:29:13.019Z,51.50
2017-08-04T13:31:40.703Z,52.30
2017-08-04T13:34:08.337Z,51.50
2017-08-04T13:36:35.935Z,51.90
2017-08-04T13:39:03.769Z,52.10
2017-08-04T13:41:32.955Z,52.10
2017-08-04T13:44:01.844Z,51.40
2017-08-04T13:46:29.410Z,51.20
2017-08-04T13:48:56.862Z,51.20
2017-08-04T13:51:25.668Z,50.80
2017-08-04T13:53:53.183Z,50.50
2017-08-04T13:56:20.699Z,50.10
2017-08-04T13:58:48.180Z,50.10
2017-08-04T14:01:15.966Z,50.30
2017-08-04T14:03:43.503Z,50.30
2017-08-04T14:06:11.047Z,49.70
2017-08-04T14:08:38.828Z,49.80
2017-08-04T14:11:06.362Z,50.80
2017-08-04T14:13:34.645Z,50.20
2017-08-04T14:16:02.184Z,50.20
2017-08-04T14:18:30.470Z,49.50
2017-08-04T14:20:58.723Z,49.30
2017-08-04T14:23:26.263Z,49.30
2017-08-04T14:25:53.757Z,49.40
2017-08-04T14:28:21.274Z,49.20
2017-08-04T14:30:49.429Z,49.40
2017-08-04T14:33:17.093Z,49.80
2017-08-04T14:35:44.618Z,50.20
2017-08-04T14:38:12.176Z,50.60
2017-08-04T14:40:39.905Z,50.30
2017-08-04T14:43:08.027Z,50.50
2017-08-04T14:45:35.904Z,50.30
2017-08-04T14:48:03.421Z,50.90
2017-08-04T14:50:31.084Z,51.10
2017-08-04T14:52:58.616Z,51.40
2017-08-04T14:55:26.113Z,51.50
2017-08-04T14:57:53.591Z,51.30
2017-08-04T15:00:21.169Z,51.30
2017-08-04T15:02:49.049Z,52.10
2017-08-04T15:05:16.528Z,51.80
2017-08-04T15:07:44.001Z,51.70
2017-08-04T15:10:11.598Z,51.40
2017-08-04T15:12:39.059Z,51.30
2017-08-04T15:15:07.084Z,51.10
2017-08-04T15:17:34.671Z,50.40
2017-08-04T15:20:02.207Z,50.60
2017-08-04T15:22:29.886Z,50.70
2017-08-04T15:24:57.436Z,50.60
2017-08-04T15:27:25.784Z,51.20
2017-08-04T15:29:53.355Z,51.00
2017-08-04T15:32:22.703Z,51.10
2017-08-04T15:34:50.218Z,51.30
2017-08-04T15:37:17.859Z,50.90
2017-08-04T15:39:46.912Z,50.60
2017-08-04T15:42:14.750Z,50.30
2017-08-04T15:44:42.460Z,50.20
2017-08-04T15:49:46.808Z,49.10
2017-08-04T15:52:14.504Z,49.40
2017-08-04T15:54:42.392Z,49.90
2017-08-04T15:57:10.101Z,50.00
2017-08-04T15:59:37.640Z,49.90
2017-08-04T16:02:05.457Z,50.00
2017-08-04T16:04:33.223Z,49.90
2017-08-04T16:07:00.819Z,50.60
2017-08-04T16:09:30.818Z,50.90
2017-08-04T16:11:59.021Z,50.50
2017-08-04T16:14:28.664Z,49.90
2017-08-04T16:16:57.229Z,49.30
2017-08-04T16:19:24.739Z,49.50
2017-08-04T16:21:53.177Z,50.00
2017-08-04T16:24:20.875Z,50.20
2017-08-04T16:26:48.901Z,50.40
2017-08-04T16:29:16.382Z,50.80
2017-08-04T16:31:52.904Z,50.60
2017-08-04T16:34:21.869Z,50.60
2017-08-04T16:36:53.888Z,50.50
2017-08-04T16:39:23.904Z,50.50
2017-08-04T16:41:51.479Z,50.70
2017-08-04T16:44:19.191Z,51.30
2017-08-04T16:46:46.713Z,51.20
2017-08-04T16:49:14.855Z,51.40
2017-08-04T16:51:43.335Z,51.40
2017-08-04T16:54:10.996Z,51.80
2017-08-04T16:56:41.687Z,51.50
2017-08-04T16:59:09.296Z,51.50
2017-08-04T17:01:36.970Z,51.10
2017-08-04T17:04:04.480Z,51.00
2017-08-04T17:06:35.790Z,51.00
2017-08-04T17:09:03.388Z,51.00
2017-08-04T17:11:30.933Z,50.90
2017-08-04T17:14:10.167Z,50.90
2017-08-04T17:16:37.950Z,50.50
2017-08-04T17:19:05.591Z,50.50
2017-08-04T17:21:33.273Z,50.30
2017-08-04T17:24:00.866Z,50.80
2017-08-04T17:26:28.550Z,50.90
2017-08-04T17:28:56.260Z,51.20
2017-08-04T17:31:25.899Z,51.50
2017-08-04T17:33:55.975Z,51.70
2017-08-04T17:36:25.661Z,52.20
2017-08-04T17:38:59.094Z,51.70
2017-08-04T17:41:29.090Z,51.70
2017-08-04T17:44:00.340Z,51.60
2017-08-04T17:46:46.868Z,51.80
2017-08-04T17:49:15.301Z,52.00
2017-08-04T17:51:45.068Z,52.10
2017-08-04T17:56:50.139Z,52.30
2017-08-04T17:59:29.171Z,52.50
2017-08-04T18:01:57.692Z,52.30
2017-08-04T18:04:36.661Z,52.40
2017-08-04T18:07:04.576Z,52.40
2017-08-04T18:09:34.764Z,52.80
2017-08-04T18:12:03.573Z,52.70
2017-08-04T18:14:36.000Z,52.80
2017-08-04T18:19:41.202Z,53.10
2017-08-04T18:22:17.521Z,53.10
2017-08-04T18:24:46.243Z,53.20
2017-08-04T18:27:14.862Z,53.00
2017-08-04T18:29:42.497Z,53.00
2017-08-04T18:32:11.165Z,53.20
2017-08-04T18:34:38.925Z,53.20
2017-08-04T18:37:09.963Z,53.30
2017-08-04T18:39:37.604Z,53.20
2017-08-04T18:42:06.165Z,53.30
2017-08-04T18:44:40.507Z,53.90
2017-08-04T18:47:25.808Z,53.80
2017-08-04T18:52:54.849Z,53.70
2017-08-04T18:55:27.616Z,53.70
2017-08-04T18:57:55.255Z,53.70
2017-08-04T19:00:30.160Z,53.90
2017-08-04T19:03:08.316Z,54.00
2017-08-04T19:05:48.635Z,54.00
2017-08-04T19:10:59.694Z,54.30
2017-08-04T19:13:27.751Z,54.40
2017-08-04T19:16:04.363Z,54.50
2017-08-04T19:18:38.574Z,54.60
2017-08-04T19:21:35.207Z,55.00
2017-08-04T19:29:54.315Z,56.60
2017-08-04T19:37:46.507Z,56.60
2017-08-04T19:40:23.220Z,56.70
2017-08-04T19:42:50.898Z,57.00
2017-08-04T19:45:19.144Z,57.00
2017-08-04T19:47:50.747Z,57.40
2017-08-04T19:50:19.957Z,56.60
2017-08-04T19:52:55.019Z,57.20
2017-08-04T19:55:23.539Z,57.20
2017-08-04T19:57:53.227Z,57.50
2017-08-04T20:00:22.046Z,57.50
2017-08-04T20:02:49.851Z,58.30
2017-08-04T20:05:18.482Z,58.00
2017-08-04T20:07:46.652Z,58.30
2017-08-04T20:10:14.851Z,58.70
2017-08-04T20:12:42.387Z,58.80
2017-08-04T20:15:09.967Z,58.60
2017-08-04T20:17:42.328Z,58.60
2017-08-04T20:20:12.685Z,58.90
2017-08-04T20:25:25.178Z,59.30
2017-08-04T20:27:55.195Z,59.00
2017-08-04T20:30:22.748Z,59.40
2017-08-04T20:32:50.400Z,59.60
2017-08-04T20:35:18.727Z,59.90
2017-08-04T20:37:47.153Z,61.00
2017-08-04T20:40:15.541Z,60.50
2017-08-04T20:42:44.370Z,60.70
2017-08-04T20:45:13.687Z,60.90
2017-08-04T20:47:42.142Z,61.30
2017-08-04T20:50:13.736Z,61.10
2017-08-04T20:52:49.828Z,61.30
2017-08-04T20:55:20.457Z,61.20
2017-08-04T20:57:48.320Z,61.40
2017-08-04T21:00:16.541Z,61.20
2017-08-04T21:02:44.854Z,61.10
2017-08-04T21:05:14.944Z,60.80
2017-08-04T21:07:44.001Z,60.60
2017-08-04T21:10:17.490Z,60.40
2017-08-04T21:12:45.842Z,60.60
2017-08-04T21:15:14.347Z,60.90
2017-08-04T21:17:43.073Z,61.10
2017-08-04T21:20:15.260Z,61.10
2017-08-04T21:22:50.081Z,61.30
2017-08-04T21:27:57.173Z,61.10
2017-08-04T21:30:26.543Z,60.80
2017-08-04T21:33:10.727Z,60.70
2017-08-04T21:35:38.250Z,60.70
2017-08-04T21:38:06.842Z,61.20
2017-08-04T21:40:35.345Z,61.40
2017-08-04T21:43:05.632Z,61.70
2017-08-04T21:45:41.837Z,61.90
2017-08-04T21:48:10.951Z,62.40
2017-08-04T21:50:40.260Z,62.40
2017-08-04T21:53:08.642Z,62.90
2017-08-04T21:55:37.094Z,63.20
2017-08-04T21:58:08.505Z,63.30
2017-08-04T22:00:41.300Z,63.40
2017-08-04T22:03:10.585Z,63.90
2017-08-04T22:05:38.342Z,63.70
2017-08-04T22:08:08.563Z,63.80
2017-08-04T22:10:36.196Z,64.20
2017-08-04T22:13:10.587Z,64.00
2017-08-04T22:18:18.468Z,64.40
2017-08-04T22:20:47.182Z,64.40
2017-08-04T22:23:14.833Z,64.50
2017-08-04T22:25:45.139Z,64.30
2017-08-04T22:28:12.672Z,64.30
2017-08-04T22:30:40.928Z,64.50
2017-08-04T22:33:09.231Z,64.50
2017-08-04T22:35:38.622Z,64.50
2017-08-04T22:38:07.668Z,64.40
2017-08-04T22:40:36.206Z,64.30
2017-08-04T22:43:04.517Z,64.10
2017-08-04T22:45:32.211Z,64.10
2017-08-04T22:47:59.965Z,64.00
2017-08-04T22:50:28.248Z,64.10
2017-08-04T22:52:56.492Z,64.20
2017-08-04T22:55:25.276Z,64.10
2017-08-04T22:58:03.921Z,63.90
2017-08-04T23:00:33.993Z,63.70
2017-08-04T23:03:02.906Z,63.60
2017-08-04T23:05:30.508Z,63.60
2017-08-04T23:08:01.209Z,63.80
2017-08-04T23:10:29.694Z,63.50
2017-08-04T23:12:58.705Z,62.50
2017-08-04T23:15:29.139Z,62.80
2017-08-04T23:18:01.248Z,62.20
2017-08-04T23:20:29.353Z,62.00
2017-08-04T23:22:59.465Z,62.50
2017-08-04T23:25:27.066Z,62.50
2017-08-04T23:27:59.321Z,62.10
2017-08-04T23:30:30.293Z,63.20
2017-08-04T23:33:02.920Z,62.70
2017-08-04T23:35:33.724Z,62.70
2017-08-04T23:38:03.212Z,62.90
2017-08-04T23:40:34.709Z,63.80
2017-08-04T23:43:02.450Z,63.70
2017-08-04T23:45:30.056Z,63.90
2017-08-04T23:47:58.439Z,64.10
2017-08-04T23:50:26.815Z,64.40
2017-08-04T23:52:55.136Z,64.40
2017-08-04T23:58:00.545Z,64.00
